Time;durP1;ratioP1;P1;durP2;ratioP2;P2;SDS_P1;SDS_P2;PMS_P1;PMS_P2;Temp;Humidity;BMP_temperature;BMP_pressure;BME280_temperature;BME280_humidity;BME280_pressure;Samples;Min_cycle;Max_cycle;Signal;HPM_P1;HPM_P2
2023/07/15 00:01:02;;;;;;;21.50;6.30;;;;;;;20.80;62.50;98956.48;136077;1275;22636;-60
2023/07/15 00:04:10;;;;;;;20.00;5.70;;;;;;;20.78;62.62;98955.11;136061;1275;22535;-59
2023/07/15 00:07:13;;;;;;;20.90;5.80;;;;;;;20.81;62.47;98952.40;136101;1275;24216;-63
2023/07/15 00:10:15;;;;;;;19.40;6.00;;;;;;;20.65;63.03;98956.32;136095;1275;24361;-62
2023/07/15 00:13:18;;;;;;;18.10;6.00;;;;;;;20.67;63.05;98960.54;136102;1272;22535;-62
2023/07/15 00:16:20;;;;;;;17.90;5.60;;;;;;;20.61;62.93;98962.30;136079;1275;22523;-62
2023/07/15 00:19:23;;;;;;;21.50;6.10;;;;;;;20.46;63.64;98963.89;136071;1275;22636;-60
2023/07/15 00:22:26;;;;;;;19.50;5.90;;;;;;;20.48;63.16;98958.68;136108;1275;25468;-60
2023/07/15 00:25:30;;;;;;;;;;;;;;;20.42;63.96;98962.16;136065;1275;22501;-61
2023/07/15 00:28:33;;;;;;;19.30;5.60;;;;;;;20.47;64.00;98964.03;136118;1275;22635;-61
2023/07/15 00:31:36;;;;;;;;;;;;;;;20.43;64.62;98965.40;136123;1275;22509;-60
2023/07/15 00:34:38;;;;;;;20.20;5.90;;;;;;;20.40;65.19;98964.27;136086;1275;22519;-60
2023/07/15 00:37:40;;;;;;;;;;;;;;;20.04;66.68;98964.30;136112;1275;22505;-59
2023/07/15 00:40:43;;;;;;;18.40;5.80;;;;;;;20.05;66.55;98958.86;136087;1275;22542;-60
2023/07/15 00:43:45;;;;;;;21.50;6.40;;;;;;;20.08;65.88;98952.53;136049;1275;24342;-60
2023/07/15 00:46:48;;;;;;;;;;;;;;;20.17;65.27;98950.88;136049;1275;22522;-60
2023/07/15 00:49:50;;;;;;;17.60;5.80;;;;;;;20.26;64.57;98949.53;136069;1275;22519;-59
2023/07/15 00:52:52;;;;;;;20.30;6.10;;;;;;;20.48;63.20;98942.38;136099;1275;22630;-58
2023/07/15 00:55:55;;;;;;;;;;;;;;;20.53;62.79;98936.60;136135;1275;22772;-59
2023/07/15 00:58:57;;;;;;;21.00;6.50;;;;;;;20.47;63.28;98939.46;136083;1260;23082;-60
2023/07/15 01:02:00;;;;;;;;;;;;;;;20.57;62.57;98936.35;136128;1275;22516;-62
2023/07/15 01:05:03;;;;;;;25.00;6.80;;;;;;;20.36;63.80;98935.10;136105;1275;22531;-60
2023/07/15 01:08:05;;;;;;;21.40;7.00;;;;;;;20.12;65.09;98938.35;135977;1275;25211;-60
2023/07/15 01:11:07;;;;;;;;;;;;;;;20.19;65.79;98938.55;136095;1275;22516;-60
2023/07/15 01:14:12;;;;;;;23.30;6.20;;;;;;;19.59;68.29;98938.70;136085;1275;22547;-60
2023/07/15 01:17:19;;;;;;;23.50;6.40;;;;;;;19.74;66.93;98935.60;136101;1275;22517;-60
2023/07/15 01:20:25;;;;;;;21.60;5.90;;;;;;;19.69;67.21;98933.09;136084;1275;22524;-59
2023/07/15 01:23:28;;;;;;;26.10;6.50;;;;;;;19.73;67.15;98932.88;136102;1275;22524;-60
2023/07/15 01:26:31;;;;;;;23.50;6.80;;;;;;;19.68;67.29;98933.72;136095;1275;22518;-60
2023/07/15 01:29:33;;;;;;;25.00;6.90;;;;;;;19.87;66.59;98927.30;136053;1275;22544;-60
2023/07/15 01:32:35;;;;;;;;;;;;;;;19.85;66.38;98928.89;136110;1275;22513;-59
2023/07/15 01:35:38;;;;;;;21.20;6.60;;;;;;;19.91;66.12;98927.77;136096;1275;22558;-59
2023/07/15 01:38:41;;;;;;;;;;;;;;;20.27;64.07;98920.89;136066;1275;22505;-59
2023/07/15 01:41:43;;;;;;;17.80;5.50;;;;;;;20.43;63.47;98917.55;136090;1257;24170;-59
2023/07/15 01:44:45;;;;;;;;;;;;;;;20.46;63.54;98917.94;136076;1275;22495;-59
2023/07/15 01:47:48;;;;;;;20.50;5.80;;;;;;;20.48;63.52;98911.55;135969;1275;22531;-59
2023/07/15 01:50:51;;;;;;;;;;;;;;;20.52;63.28;98914.35;136040;1275;22526;-59
2023/07/15 01:53:53;;;;;;;19.70;6.40;;;;;;;20.28;64.42;98913.52;136109;1275;22546;-58
2023/07/15 01:56:56;;;;;;;;;;;;;;;20.15;64.80;98906.06;136152;1275;22501;-59
2023/07/15 01:59:58;;;;;;;;;;;;;;;20.08;65.21;98904.61;136090;1275;23114;-58
2023/07/15 02:03:01;;;;;;;22.70;6.80;;;;;;;20.07;65.20;98904.05;136053;1275;22534;-59
2023/07/15 02:06:03;;;;;;;19.80;5.60;;;;;;;19.92;65.70;98906.36;136027;1275;22527;-59
2023/07/15 02:09:07;;;;;;;;;;;;;;;19.80;66.41;98907.03;136105;1275;22491;-58
2023/07/15 02:12:10;;;;;;;18.70;5.60;;;;;;;19.87;66.57;98906.88;135989;1275;22664;-59
2023/07/15 02:15:13;;;;;;;17.10;5.30;;;;;;;19.90;66.25;98907.67;136074;1275;22539;-59
2023/07/15 02:18:15;;;;;;;22.20;5.90;;;;;;;19.85;66.51;98908.00;136070;1275;22524;-59
2023/07/15 02:21:19;;;;;;;;;;;;;;;20.02;65.52;98903.63;136080;1275;22509;-59
2023/07/15 02:24:21;;;;;;;26.00;6.20;;;;;;;19.94;66.06;98903.95;136085;1275;22524;-59
2023/07/15 02:27:24;;;;;;;;;;;;;;;19.82;66.74;98898.48;136107;1275;22607;-60
2023/07/15 02:30:27;;;;;;;22.30;6.20;;;;;;;19.85;66.42;98895.04;136059;1275;22549;-59
2023/07/15 02:33:29;;;;;;;20.90;5.90;;;;;;;20.10;64.82;98892.91;136073;1275;24233;-59
2023/07/15 02:36:32;;;;;;;;;;;;;;;20.42;63.15;98888.41;135977;1272;22520;-63
2023/07/15 02:39:35;;;;;;;;;;;;;;;20.12;65.07;98888.48;136138;1275;22502;-59
2023/07/15 02:42:38;;;;;;;18.40;5.60;;;;;;;20.05;65.45;98888.98;136082;1275;22534;-60
2023/07/15 02:45:40;;;;;;;;;;;;;;;20.07;65.17;98890.05;136068;1275;25282;-60
2023/07/15 02:48:42;;;;;;;20.50;5.90;;;;;;;20.04;65.55;98888.47;136020;1275;22535;-59
2023/07/15 02:51:45;;;;;;;;;;;;;;;20.03;65.54;98891.10;136101;1275;22534;-60
2023/07/15 02:54:48;;;;;;;;;;;;;;;20.07;65.38;98893.77;136067;1275;22517;-60
2023/07/15 02:57:50;;;;;;;23.40;6.10;;;;;;;20.29;63.86;98895.99;136047;1275;25217;-60
2023/07/15 03:00:52;;;;;;;;;;;;;;;20.18;63.88;98898.30;136041;1275;22502;-59
2023/07/15 03:03:55;;;;;;;21.20;6.10;;;;;;;20.06;64.65;98897.80;136061;1275;22520;-59
2023/07/15 03:06:57;;;;;;;19.20;5.50;;;;;;;19.87;64.79;98896.00;136077;1275;22509;-60
2023/07/15 03:10:00;;;;;;;16.70;5.90;;;;;;;19.80;65.28;98895.48;136083;1275;22543;-60
2023/07/15 03:13:04;;;;;;;;;;;;;;;19.84;65.52;98895.29;136107;1275;22675;-60
2023/07/15 03:16:06;;;;;;;20.80;6.40;;;;;;;20.03;65.63;98903.34;136094;1275;22531;-60
2023/07/15 03:19:08;;;;;;;;;;;;;;;20.29;64.93;98901.15;136108;1275;22591;-60
2023/07/15 03:22:11;;;;;;;20.50;6.20;;;;;;;20.48;64.77;98901.77;136085;1275;22521;-59
2023/07/15 03:25:14;;;;;;;;;;;;;;;20.56;64.83;98894.03;136107;1275;22512;-60
2023/07/15 03:28:16;;;;;;;20.50;5.70;;;;;;;20.75;64.47;98888.58;136045;1275;22530;-60
2023/07/15 03:31:19;;;;;;;;;;;;;;;21.05;63.25;98889.55;136079;1275;25351;-60
2023/07/15 03:34:21;;;;;;;18.20;5.40;;;;;;;21.35;62.68;98891.31;136068;1275;22530;-60
2023/07/15 03:37:25;;;;;;;18.40;5.60;;;;;;;21.28;63.67;98896.22;136109;1275;22551;-60
2023/07/15 03:40:27;;;;;;;17.10;5.30;;;;;;;21.42;63.83;98899.98;136069;1275;22533;-60
2023/07/15 03:43:30;;;;;;;;;;;;;;;21.85;62.61;98901.54;136030;1275;22639;-60
2023/07/15 03:46:33;;;;;;;18.40;6.10;;;;;;;22.30;61.00;98900.36;136089;1275;24167;-61
2023/07/15 03:49:35;;;;;;;19.00;6.30;;;;;;;22.34;61.19;98902.27;136071;1275;22524;-60
2023/07/15 03:52:38;;;;;;;;;;;;;;;22.35;61.43;98903.31;136062;1275;25442;-60
2023/07/15 03:55:40;;;;;;;18.60;5.50;;;;;;;22.58;60.86;98904.85;136094;1253;22542;-60
2023/07/15 03:58:42;;;;;;;19.10;5.50;;;;;;;22.90;60.20;98908.19;136069;1257;22527;-60
2023/07/15 04:01:45;;;;;;;16.80;5.50;;;;;;;23.51;58.00;98913.48;135955;1275;22516;-60
2023/07/15 04:04:47;;;;;;;21.30;5.90;;;;;;;23.76;57.62;98917.11;136060;1275;22682;-60
2023/07/15 04:07:50;;;;;;;17.60;5.60;;;;;;;24.14;56.90;98911.63;135991;1275;22546;-61
2023/07/15 04:10:52;;;;;;;18.60;5.60;;;;;;;24.24;56.85;98913.11;136102;1275;22527;-60
2023/07/15 04:13:54;;;;;;;17.30;5.50;;;;;;;24.35;56.52;98916.58;136028;1275;22633;-60
2023/07/15 04:16:57;;;;;;;18.40;5.80;;;;;;;24.37;56.23;98914.98;136067;1275;22537;-61
2023/07/15 04:19:59;;;;;;;20.60;5.90;;;;;;;24.09;57.37;98923.16;136086;1275;22524;-60
2023/07/15 04:23:02;;;;;;;21.10;6.00;;;;;;;24.08;57.30;98924.37;136100;1275;22543;-60
2023/07/15 04:26:06;;;;;;;21.30;6.40;;;;;;;24.41;56.16;98923.00;135954;1261;22533;-62
2023/07/15 04:29:09;;;;;;;39.80;8.00;;;;;;;24.49;55.95;98915.42;135977;1270;22571;-60
2023/07/15 04:32:11;;;;;;;23.50;6.00;;;;;;;24.58;55.67;98914.96;135983;1272;22530;-60
2023/07/15 04:35:16;;;;;;;23.20;6.20;;;;;;;24.78;55.73;98912.06;135970;1272;22520;-61
2023/07/15 04:38:19;;;;;;;20.90;6.00;;;;;;;25.03;55.21;98914.55;132148;1270;5121878;-61
2023/07/15 04:41:21;;;;;;;20.80;6.40;;;;;;;25.23;54.62;98909.89;136004;1270;22537;-60
2023/07/15 04:44:24;;;;;;;20.60;6.40;;;;;;;25.27;54.16;98911.13;136009;1272;22546;-60
2023/07/15 04:47:27;;;;;;;20.30;6.60;;;;;;;25.38;54.14;98913.77;135979;1272;24356;-61
2023/07/15 04:50:30;;;;;;;18.80;5.90;;;;;;;25.58;53.99;98913.20;135999;1270;22542;-61
2023/07/15 04:53:32;;;;;;;22.30;6.50;;;;;;;25.75;54.26;98910.22;135966;1275;22576;-60
2023/07/15 04:56:38;;;;;;;20.10;6.50;;;;;;;26.15;53.42;98909.70;135965;1270;22524;-61
2023/07/15 04:59:40;;;;;;;21.10;6.20;;;;;;;26.57;52.08;98912.22;136005;1270;22632;-61
2023/07/15 05:02:43;;;;;;;20.40;6.00;;;;;;;26.70;51.66;98916.68;135967;1270;22636;-61
2023/07/15 05:05:46;;;;;;;20.90;6.40;;;;;;;26.70;52.48;98914.73;135986;1273;22650;-61
2023/07/15 05:08:49;;;;;;;17.90;6.40;;;;;;;26.80;52.40;98905.00;135977;1270;23221;-60
2023/07/15 05:11:51;;;;;;;18.90;5.80;;;;;;;27.07;51.50;98912.73;136069;1268;25564;-61
2023/07/15 05:14:54;;;;;;;26.40;7.30;;;;;;;27.26;51.12;98912.59;136062;1275;22530;-61
2023/07/15 05:17:56;;;;;;;19.10;5.50;;;;;;;27.51;50.60;98916.02;136112;1275;22537;-60
2023/07/15 05:20:59;;;;;;;15.80;5.60;;;;;;;27.81;50.24;98921.70;136137;1275;22782;-60
2023/07/15 05:24:01;;;;;;;18.80;6.00;;;;;;;28.02;50.42;98924.18;136112;1275;22551;-60
2023/07/15 05:27:03;;;;;;;17.20;5.70;;;;;;;27.98;50.87;98926.90;136046;1275;22525;-62
2023/07/15 05:30:06;;;;;;;19.20;6.00;;;;;;;28.58;49.03;98932.75;136075;1275;22523;-61
2023/07/15 05:33:09;;;;;;;21.10;6.20;;;;;;;28.24;50.31;98934.34;136112;1275;22539;-60
2023/07/15 05:36:11;;;;;;;19.80;6.40;;;;;;;28.58;50.03;98928.76;136004;1272;25415;-62
2023/07/15 05:39:14;;;;;;;20.90;6.00;;;;;;;28.60;49.45;98926.56;136094;1275;22562;-60
2023/07/15 05:42:16;;;;;;;17.10;5.90;;;;;;;28.62;49.99;98926.53;136113;1275;22550;-61
2023/07/15 05:45:19;;;;;;;17.60;5.80;;;;;;;29.18;48.61;98921.73;136155;1275;22542;-60
2023/07/15 05:48:21;;;;;;;20.70;6.20;;;;;;;28.96;49.28;98924.92;136116;1275;22534;-61
2023/07/15 05:51:23;;;;;;;17.30;6.10;;;;;;;29.04;49.25;98925.32;136109;1275;22537;-61
2023/07/15 05:54:26;;;;;;;19.60;6.20;;;;;;;29.24;49.11;98919.09;136126;1275;22514;-61
2023/07/15 05:57:28;;;;;;;16.80;5.70;;;;;;;29.29;49.24;98925.61;136075;1275;22550;-61
2023/07/15 06:00:31;;;;;;;19.30;6.10;;;;;;;29.29;49.99;98924.40;136117;1275;22534;-63
2023/07/15 06:03:33;;;;;;;19.20;6.00;;;;;;;29.45;49.72;98924.90;136150;1275;22531;-61
2023/07/15 06:06:36;;;;;;;17.70;5.70;;;;;;;29.62;49.55;98919.83;136087;1275;22520;-62
2023/07/15 06:09:38;;;;;;;18.70;5.60;;;;;;;29.95;48.78;98915.23;136086;1275;22555;-63
2023/07/15 06:12:41;;;;;;;17.60;5.80;;;;;;;30.15;48.60;98913.73;136051;1275;22524;-62
2023/07/15 06:15:43;;;;;;;16.30;5.80;;;;;;;30.24;48.28;98913.13;136043;1275;22560;-62
2023/07/15 06:18:46;;;;;;;16.40;5.50;;;;;;;30.59;47.99;98908.25;136081;1275;22539;-63
2023/07/15 06:21:48;;;;;;;17.60;5.40;;;;;;;30.61;48.25;98913.52;136066;1275;22542;-63
2023/07/15 06:24:51;;;;;;;16.10;4.90;;;;;;;30.83;48.13;98915.39;136032;1275;22636;-63
2023/07/15 06:27:53;;;;;;;20.90;5.60;;;;;;;31.14;47.40;98912.89;136118;1275;23386;-63
2023/07/15 06:30:55;;;;;;;16.30;5.20;;;;;;;31.56;46.85;98913.05;136052;1275;22532;-63
2023/07/15 06:33:58;;;;;;;16.90;5.40;;;;;;;31.63;46.85;98916.04;135939;1275;22533;-64
2023/07/15 06:37:00;;;;;;;17.80;5.10;;;;;;;31.92;46.09;98918.30;136065;1275;22543;-63
2023/07/15 06:40:04;;;;;;;17.60;5.40;;;;;;;32.31;45.61;98919.99;136095;1275;22520;-63
2023/07/15 06:43:06;;;;;;;14.80;4.90;;;;;;;32.27;45.81;98925.12;136080;1275;22547;-64
2023/07/15 06:46:09;;;;;;;16.90;5.00;;;;;;;32.27;45.89;98929.08;136155;1275;22534;-62
2023/07/15 06:49:11;;;;;;;15.70;4.80;;;;;;;32.54;45.25;98932.14;136086;1275;22546;-63
2023/07/15 06:52:13;;;;;;;14.30;4.60;;;;;;;32.79;43.72;98929.27;136098;1275;25420;-65
2023/07/15 06:55:16;;;;;;;14.70;4.60;;;;;;;32.80;43.95;98931.31;136084;1275;22558;-63
2023/07/15 06:58:19;;;;;;;15.00;4.70;;;;;;;32.94;43.85;98931.56;136090;1275;22531;-61
2023/07/15 07:01:21;;;;;;;16.60;5.00;;;;;;;33.28;43.53;98928.70;136093;1275;22540;-63
2023/07/15 07:04:23;;;;;;;15.70;4.80;;;;;;;33.44;42.05;98922.17;136118;1275;22546;-65
2023/07/15 07:07:26;;;;;;;16.00;4.60;;;;;;;33.57;41.85;98919.98;136015;1275;22510;-66
2023/07/15 07:10:28;;;;;;;19.80;4.80;;;;;;;33.55;41.27;98920.86;136060;1275;22533;-64
2023/07/15 07:13:31;;;;;;;14.60;4.70;;;;;;;33.57;42.71;98915.94;136049;1275;22535;-65
2023/07/15 07:16:33;;;;;;;15.90;4.60;;;;;;;34.21;42.01;98909.92;136034;1275;22543;-65
2023/07/15 07:19:36;;;;;;;13.40;4.50;;;;;;;34.66;40.39;98903.77;135975;1275;22527;-64
2023/07/15 07:22:38;;;;;;;17.90;4.50;;;;;;;34.79;39.96;98902.08;135995;1275;25252;-62
2023/07/15 07:25:40;;;;;;;16.20;4.70;;;;;;;35.08;39.33;98908.70;136061;1275;22545;-63
2023/07/15 07:28:43;;;;;;;13.10;4.10;;;;;;;35.39;39.03;98910.56;136051;1257;23167;-66
2023/07/15 07:31:45;;;;;;;14.80;4.60;;;;;;;35.78;38.47;98907.97;136072;1275;25485;-66
2023/07/15 07:34:48;;;;;;;14.50;4.40;;;;;;;36.01;38.02;98906.90;136044;1275;22550;-67
2023/07/15 07:37:50;;;;;;;19.50;4.60;;;;;;;36.08;38.00;98904.89;136074;1275;22531;-67
2023/07/15 07:40:53;;;;;;;77.30;7.70;;;;;;;36.37;37.62;98906.41;136091;1275;23031;-68
2023/07/15 07:43:55;;;;;;;16.10;4.00;;;;;;;36.41;37.36;98908.67;136116;1275;22524;-68
2023/07/15 07:46:57;;;;;;;15.70;4.20;;;;;;;36.39;37.27;98897.85;136056;1275;22531;-67
2023/07/15 07:50:00;;;;;;;15.50;3.90;;;;;;;36.15;37.15;98897.31;136041;1270;22520;-68
2023/07/15 07:53:02;;;;;;;13.50;3.70;;;;;;;36.03;35.65;98896.11;136010;1258;22531;-68
2023/07/15 07:56:05;;;;;;;11.90;3.70;;;;;;;35.90;34.93;98898.39;136059;1266;22520;-67
2023/07/15 07:59:08;;;;;;;11.80;3.80;;;;;;;35.64;35.58;98893.48;136060;1275;22514;-66
2023/07/15 08:02:10;;;;;;;14.00;3.70;;;;;;;35.63;36.14;98894.94;136089;1275;22527;-67
2023/07/15 08:05:13;;;;;;;9.20;3.30;;;;;;;35.99;36.06;98900.21;136061;1275;22592;-66
2023/07/15 08:08:15;;;;;;;10.30;3.50;;;;;;;36.66;34.25;98897.45;136102;1275;22525;-65
2023/07/15 08:11:17;;;;;;;14.10;3.80;;;;;;;36.76;33.49;98899.61;136139;1275;22553;-65
2023/07/15 08:14:20;;;;;;;9.40;3.20;;;;;;;36.40;32.43;98896.60;136070;1275;22541;-66
2023/07/15 08:17:22;;;;;;;14.10;3.30;;;;;;;36.20;33.34;98894.61;136032;1275;25562;-66
2023/07/15 08:20:29;;;;;;;9.90;3.50;;;;;;;36.52;33.03;98892.10;136038;1275;22520;-66
2023/07/15 08:23:32;;;;;;;12.60;3.40;;;;;;;36.39;32.56;98886.39;136116;1275;22537;-66
2023/07/15 08:26:34;;;;;;;9.40;3.30;;;;;;;36.70;32.69;98888.52;136065;1275;22523;-68
2023/07/15 08:29:37;;;;;;;9.40;3.10;;;;;;;36.53;31.72;98882.99;136052;1275;22528;-67
2023/07/15 08:32:39;;;;;;;25.80;4.20;;;;;;;36.38;31.37;98886.61;136086;1275;22658;-66
2023/07/15 08:35:43;;;;;;;6.60;2.90;;;;;;;36.42;32.19;98883.61;136093;1275;22535;-67
2023/07/15 08:38:45;;;;;;;12.60;3.20;;;;;;;36.16;32.37;98884.70;136007;1275;25396;-68
2023/07/15 08:41:48;;;;;;;16.40;3.60;;;;;;;36.08;32.74;98879.52;136119;1275;25389;-69
2023/07/15 08:44:50;;;;;;;8.80;2.70;;;;;;;36.40;31.70;98887.10;136046;1275;22582;-69
2023/07/15 08:47:53;;;;;;;13.30;3.60;;;;;;;36.22;31.81;98882.30;136030;1275;24780;-68
2023/07/15 08:50:55;;;;;;;9.40;3.30;;;;;;;36.29;32.11;98879.09;136005;1275;22560;-68
2023/07/15 08:53:57;;;;;;;8.20;2.90;;;;;;;36.73;31.69;98880.06;136149;1275;24033;-69
2023/07/15 08:57:00;;;;;;;8.00;2.90;;;;;;;37.41;31.35;98881.50;136121;1275;22527;-69
2023/07/15 09:00:04;;;;;;;11.50;3.00;;;;;;;37.02;32.11;98880.69;136066;1265;22528;-69
2023/07/15 09:03:07;;;;;;;9.50;3.00;;;;;;;37.22;32.03;98879.93;136087;1275;22520;-69
2023/07/15 09:06:09;;;;;;;8.80;3.10;;;;;;;37.48;32.06;98877.92;136048;1275;22528;-69
2023/07/15 09:09:15;;;;;;;12.00;3.10;;;;;;;37.74;31.24;98870.44;136075;1275;22538;-68
2023/07/15 09:12:17;;;;;;;12.80;3.20;;;;;;;37.87;30.35;98868.17;136078;1275;24606;-68
2023/07/15 09:15:20;;;;;;;10.50;2.90;;;;;;;37.95;30.32;98870.27;136106;1275;24236;-68
2023/07/15 09:18:22;;;;;;;7.70;3.00;;;;;;;38.40;29.89;98869.48;136109;1275;22533;-68
2023/07/15 09:21:25;;;;;;;9.10;3.60;;;;;;;38.45;29.46;98873.27;136095;1275;22610;-68
2023/07/15 09:24:28;;;;;;;10.90;3.20;;;;;;;38.57;29.44;98868.65;136046;1275;25385;-69
2023/07/15 09:27:30;;;;;;;11.40;3.00;;;;;;;38.89;29.64;98865.14;136062;1275;23226;-68
2023/07/15 09:30:33;;;;;;;7.50;2.80;;;;;;;38.22;27.68;98865.70;135975;1275;22525;-68
2023/07/15 09:33:35;;;;;;;7.60;2.90;;;;;;;37.45;28.83;98861.52;136091;1275;22538;-69
2023/07/15 09:36:37;;;;;;;9.20;3.20;;;;;;;38.09;28.81;98859.38;136129;1275;22541;-69
2023/07/15 09:39:40;;;;;;;10.60;3.00;;;;;;;38.25;28.31;98860.80;136078;1275;25382;-68
2023/07/15 09:42:43;;;;;;;9.10;2.90;;;;;;;38.46;28.54;98858.64;136096;1275;22560;-69
2023/07/15 09:45:46;;;;;;;8.70;3.00;;;;;;;38.93;27.90;98854.05;136109;1275;22549;-69
2023/07/15 09:48:48;;;;;;;8.60;3.10;;;;;;;38.81;28.22;98859.79;136111;1275;22633;-69
2023/07/15 09:51:51;;;;;;;9.10;2.80;;;;;;;38.89;28.65;98854.27;136117;1275;25455;-69
2023/07/15 09:54:53;;;;;;;9.80;3.00;;;;;;;38.81;27.90;98852.86;136130;1275;22557;-69
2023/07/15 09:57:55;;;;;;;7.50;2.90;;;;;;;38.64;26.85;98851.55;136101;1275;22532;-68
2023/07/15 10:00:58;;;;;;;7.60;3.10;;;;;;;38.22;28.03;98852.37;136033;1275;22531;-68
2023/07/15 10:04:00;;;;;;;9.30;2.70;;;;;;;38.24;27.89;98853.13;136086;1275;22547;-68
2023/07/15 10:07:03;;;;;;;7.10;2.60;;;;;;;38.09;26.48;98850.10;136088;1275;25386;-67
2023/07/15 10:10:06;;;;;;;8.80;3.10;;;;;;;37.71;27.17;98851.38;136001;1268;22601;-68
2023/07/15 10:13:08;;;;;;;14.30;3.30;;;;;;;38.13;27.85;98851.38;136062;1275;22543;-67
2023/07/15 10:16:11;;;;;;;11.70;3.00;;;;;;;38.53;27.26;98849.54;136086;1275;25383;-67
2023/07/15 10:19:13;;;;;;;8.50;3.00;;;;;;;38.86;27.26;98846.08;136099;1275;24235;-68
2023/07/15 10:22:16;;;;;;;9.50;3.00;;;;;;;39.10;26.93;98845.98;136096;1275;22520;-67
2023/07/15 10:25:18;;;;;;;7.70;2.90;;;;;;;39.06;27.16;98845.44;136070;1275;22550;-67
2023/07/15 10:28:21;;;;;;;10.40;2.90;;;;;;;39.36;27.00;98846.91;136078;1275;22531;-67
2023/07/15 10:31:23;;;;;;;8.40;2.70;;;;;;;39.50;26.39;98839.42;136083;1275;22600;-70
2023/07/15 10:34:26;;;;;;;8.60;3.10;;;;;;;39.99;26.90;98840.70;136078;1275;22543;-68
2023/07/15 10:37:28;;;;;;;13.00;3.00;;;;;;;39.98;26.81;98839.33;136107;1275;22514;-69
2023/07/15 10:40:30;;;;;;;10.10;2.70;;;;;;;39.69;27.32;98840.48;136133;1275;22574;-67
2023/07/15 10:43:33;;;;;;;8.00;2.70;;;;;;;39.47;26.42;98835.48;136111;1275;22660;-68
2023/07/15 10:46:35;;;;;;;12.80;4.20;;;;;;;39.25;27.76;98840.42;136090;1275;22531;-66
2023/07/15 10:49:38;;;;;;;18.50;6.60;;;;;;;39.31;26.86;98843.19;136032;1275;22626;-67
2023/07/15 10:52:40;;;;;;;8.40;3.00;;;;;;;39.42;27.12;98847.48;136112;1275;22552;-67
2023/07/15 10:55:42;;;;;;;10.80;3.20;;;;;;;39.05;26.32;98841.63;136142;1275;22534;-66
2023/07/15 10:58:45;;;;;;;11.70;3.20;;;;;;;39.16;26.50;98838.79;136101;1275;22634;-68
2023/07/15 11:01:47;;;;;;;8.70;2.70;;;;;;;39.33;27.01;98835.67;136099;1275;22581;-66
2023/07/15 11:04:50;;;;;;;6.30;3.00;;;;;;;39.01;27.05;98836.91;136145;1275;22534;-67
2023/07/15 11:07:52;;;;;;;9.10;2.90;;;;;;;39.09;26.85;98841.83;136128;1275;22524;-66
2023/07/15 11:10:55;;;;;;;12.80;3.10;;;;;;;39.04;26.34;98832.73;136066;1258;22633;-66
2023/07/15 11:13:57;;;;;;;7.90;3.10;;;;;;;39.04;27.14;98829.92;136116;1275;22513;-67
2023/07/15 11:16:59;;;;;;;8.90;2.80;;;;;;;39.09;27.27;98832.50;136133;1275;22636;-67
2023/07/15 11:20:05;;;;;;;11.90;3.40;;;;;;;39.68;26.97;98826.76;136124;1275;22527;-66
2023/07/15 11:23:07;;;;;;;11.90;3.10;;;;;;;40.09;26.29;98818.06;136080;1275;22537;-66
2023/07/15 11:26:10;;;;;;;7.50;2.80;;;;;;;40.06;25.78;98824.52;136088;1275;22521;-66
2023/07/15 11:29:12;;;;;;;10.30;3.10;;;;;;;39.76;25.91;98822.02;136117;1275;22548;-66
2023/07/15 11:32:15;;;;;;;10.80;3.20;;;;;;;39.45;26.37;98821.29;136095;1275;22535;-66
2023/07/15 11:35:17;;;;;;;12.10;2.90;;;;;;;39.08;27.05;98817.54;136096;1275;22534;-66
2023/07/15 11:38:19;;;;;;;7.50;2.90;;;;;;;39.24;26.59;98814.98;136052;1275;22538;-66
2023/07/15 11:41:22;;;;;;;7.60;2.90;;;;;;;39.67;26.68;98814.86;136087;1275;22534;-68
2023/07/15 11:44:25;;;;;;;9.40;3.10;;;;;;;39.72;25.59;98817.94;136096;1275;22646;-66
2023/07/15 11:47:27;;;;;;;8.70;3.20;;;;;;;39.40;26.52;98814.20;136092;1275;24236;-67
2023/07/15 11:50:30;;;;;;;12.20;3.10;;;;;;;39.52;25.88;98812.20;136138;1275;22550;-67
2023/07/15 11:53:32;;;;;;;8.80;3.00;;;;;;;39.80;25.96;98808.01;136127;1275;25359;-66
2023/07/15 11:56:35;;;;;;;7.90;2.90;;;;;;;40.27;26.30;98805.09;136079;1255;22537;-67
2023/07/15 11:59:37;;;;;;;11.80;3.40;;;;;;;40.60;25.21;98805.89;136097;1275;22531;-67
2023/07/15 12:02:41;;;;;;;13.50;3.70;;;;;;;40.46;25.08;98808.19;136120;1275;22533;-67
2023/07/15 12:05:44;;;;;;;8.10;3.00;;;;;;;40.27;25.46;98808.15;136121;1275;22633;-67
2023/07/15 12:08:46;;;;;;;11.20;3.20;;;;;;;40.34;25.41;98804.13;136070;1275;22517;-68
2023/07/15 12:11:49;;;;;;;6.20;2.80;;;;;;;40.26;26.21;98797.84;136115;1275;22538;-67
2023/07/15 12:14:51;;;;;;;10.70;3.20;;;;;;;40.19;25.72;98795.45;136023;1275;22758;-67
2023/07/15 12:17:56;;;;;;;8.60;2.80;;;;;;;40.74;25.60;98795.25;136038;1275;26032;-67
2023/07/15 12:20:58;;;;;;;12.20;3.40;;;;;;;40.51;26.11;98791.71;136078;1275;22534;-68
2023/07/15 12:24:01;;;;;;;6.80;3.00;;;;;;;40.62;25.01;98795.95;136063;1275;22536;-67
2023/07/15 12:27:04;;;;;;;10.70;3.20;;;;;;;40.54;25.79;98786.17;136064;1270;22532;-66
2023/07/15 12:30:07;;;;;;;11.70;3.60;;;;;;;40.56;24.78;98787.05;136048;1257;22524;-67
2023/07/15 12:33:09;;;;;;;7.80;2.80;;;;;;;40.42;25.16;98781.95;136095;1275;22526;-67
2023/07/15 12:36:12;;;;;;;8.10;3.10;;;;;;;40.65;26.03;98777.52;136155;1275;22520;-67
2023/07/15 12:39:16;;;;;;;12.20;3.50;;;;;;;41.09;25.56;98779.85;136104;1275;22633;-68
2023/07/15 12:42:18;;;;;;;7.80;3.20;;;;;;;41.09;24.95;98777.58;136096;1275;22559;-68
2023/07/15 12:45:20;;;;;;;11.20;3.50;;;;;;;41.13;25.14;98778.10;136108;1264;22605;-66
2023/07/15 12:48:23;;;;;;;8.80;3.10;;;;;;;41.47;24.89;98769.79;136110;1275;25232;-67
2023/07/15 12:51:25;;;;;;;10.30;3.30;;;;;;;41.72;24.42;98764.71;136115;1275;25517;-66
2023/07/15 12:54:28;;;;;;;7.10;3.00;;;;;;;41.63;24.28;98762.45;136041;1257;24260;-67
2023/07/15 12:57:30;;;;;;;9.90;3.10;;;;;;;41.44;24.46;98761.10;136077;1275;22705;-67
2023/07/15 13:00:33;;;;;;;9.90;2.90;;;;;;;41.53;25.25;98753.64;136087;1275;22524;-66
2023/07/15 13:03:35;;;;;;;7.40;3.30;;;;;;;41.67;24.54;98754.89;136063;1275;22550;-66
2023/07/15 13:06:38;;;;;;;9.90;3.40;;;;;;;41.13;25.00;98757.80;136104;1275;22543;-66
2023/07/15 13:09:41;;;;;;;11.20;3.00;;;;;;;41.57;25.31;98753.01;136036;1275;25465;-67
2023/07/15 13:12:43;;;;;;;10.70;3.30;;;;;;;42.04;25.06;98748.20;136073;1275;22584;-67
2023/07/15 13:15:46;;;;;;;14.40;3.30;;;;;;;41.98;25.19;98747.34;136068;1275;22531;-67
2023/07/15 13:18:49;;;;;;;8.70;3.30;;;;;;;41.83;24.47;98749.46;136104;1275;22538;-66
2023/07/15 13:21:52;;;;;;;10.80;3.20;;;;;;;41.67;24.11;98747.35;136063;1275;22556;-67
2023/07/15 13:24:55;;;;;;;10.40;3.20;;;;;;;41.73;24.71;98740.59;136092;1272;22534;-66
2023/07/15 13:27:58;;;;;;;11.20;3.20;;;;;;;41.54;24.50;98738.32;136073;1275;24337;-66
2023/07/15 13:31:00;;;;;;;10.00;3.40;;;;;;;41.43;25.27;98741.25;136091;1275;22533;-67
2023/07/15 13:34:03;;;;;;;10.00;3.30;;;;;;;41.33;25.34;98741.84;136129;1257;24192;-66
2023/07/15 13:37:05;;;;;;;10.50;3.00;;;;;;;41.42;25.38;98738.79;136052;1275;22520;-67
2023/07/15 13:40:09;;;;;;;13.60;3.30;;;;;;;41.48;25.50;98739.09;136085;1275;22536;-67
2023/07/15 13:43:11;;;;;;;8.10;2.90;;;;;;;41.86;25.25;98741.25;136087;1261;24413;-66
2023/07/15 13:46:14;;;;;;;11.50;3.30;;;;;;;42.22;25.19;98742.77;136071;1275;22528;-67
2023/07/15 13:49:16;;;;;;;8.00;3.30;;;;;;;42.20;24.72;98740.05;136074;1275;24205;-67
2023/07/15 13:52:19;;;;;;;6.20;2.90;;;;;;;42.28;24.86;98736.48;136082;1275;22553;-68
2023/07/15 13:55:21;;;;;;;12.00;2.90;;;;;;;42.37;24.55;98731.29;136031;1275;22531;-67
2023/07/15 13:58:24;;;;;;;11.00;3.00;;;;;;;42.36;24.60;98735.39;136035;1275;22583;-67
2023/07/15 14:01:29;;;;;;;8.40;3.00;;;;;;;42.07;24.82;98731.46;135995;1273;22537;-66
2023/07/15 14:04:31;;;;;;;12.40;2.90;;;;;;;42.16;24.43;98731.36;136090;1275;22534;-67
2023/07/15 14:07:34;;;;;;;10.20;3.30;;;;;;;41.74;23.98;98725.39;136085;1275;22544;-67
2023/07/15 14:10:36;;;;;;;9.10;3.30;;;;;;;41.60;23.84;98724.79;136147;1275;22530;-66